Time;durP1;ratioP1;P1;durP2;ratioP2;P2;SDS_P1;SDS_P2;PMS_P1;PMS_P2;Temp;Humidity;BMP_temperature;BMP_pressure;BME280_temperature;BME280_humidity;BME280_pressure;Samples;Min_cycle;Max_cycle;Signal;HPM_P1;HPM_P2
2023/05/04 00:02:16;;;;;;;61.10;34.30;;;;;;;;;;107923;1248;25483;-78
2023/05/04 00:04:43;;;;;;;63.30;29.40;;;;;;;;;;107924;1247;25396;-80
2023/05/04 00:07:09;;;;;;;53.50;28.60;;;;;;;;;;107884;1247;23133;-78
2023/05/04 00:09:35;;;;;;;60.70;28.20;;;;;;;;;;107937;1248;24361;-79
2023/05/04 00:12:02;;;;;;;57.00;27.00;;;;;;;;;;107884;1248;22516;-79
2023/05/04 00:14:29;;;;;;;46.50;26.80;;;;;;;;;;107889;1252;22937;-79
2023/05/04 00:16:55;;;;;;;59.50;26.90;;;;;;;;;;107883;1247;24268;-77
2023/05/04 00:19:21;;;;;;;52.10;27.90;;;;;;;;;;107905;1250;25295;-77
2023/05/04 00:21:47;;;;;;;47.70;25.50;;;;;;;;;;107910;1247;24205;-78
2023/05/04 00:24:14;;;;;;;50.90;26.90;;;;;;;;;;107910;1248;22569;-78
2023/05/04 00:26:40;;;;;;;46.00;25.80;;;;;;;;;;107746;1248;24364;-78
2023/05/04 00:29:06;;;;;;;47.20;25.40;;;;;;;;;;107835;1247;22516;-78
2023/05/04 00:31:33;;;;;;;47.90;25.40;;;;;;;;;;107889;1248;23813;-79
2023/05/04 00:33:59;;;;;;;46.10;23.90;;;;;;;;;;107890;1247;23205;-78
2023/05/04 00:36:26;;;;;;;48.60;24.10;;;;;;;;;;107937;1253;22550;-78
2023/05/04 00:38:52;;;;;;;53.00;25.80;;;;;;;;;;110024;1247;22452;-77
2023/05/04 00:41:19;;;;;;;48.40;25.80;;;;;;;;;;110441;1247;24234;-78
2023/05/04 00:43:46;;;;;;;47.80;24.70;;;;;;;;;;107905;1247;25371;-79
2023/05/04 00:46:12;;;;;;;49.60;26.50;;;;;;;;;;107870;1247;24383;-79
2023/05/04 00:48:39;;;;;;;49.60;25.40;;;;;;;;;;107717;1247;25331;-78
2023/05/04 00:51:06;;;;;;;49.40;25.30;;;;;;;;;;107654;1248;22528;-80
2023/05/04 00:53:32;;;;;;;49.20;26.40;;;;;;;;;;107901;1247;22553;-78
2023/05/04 00:55:59;;;;;;;53.70;26.20;;;;;;;;;;107846;1247;22575;-79
2023/05/04 00:58:26;;;;;;;50.80;28.50;;;;;;;;;;107726;1248;24236;-78
2023/05/04 01:00:52;;;;;;;53.70;25.60;;;;;;;;;;107935;1247;22512;-78
2023/05/04 01:03:18;;;;;;;45.60;23.90;;;;;;;;;;107964;1248;22515;-79
2023/05/04 01:05:49;;;;;;;51.50;27.00;;;;;;;;;;107846;1248;22862;-79
2023/05/04 01:08:16;;;;;;;46.60;25.50;;;;;;;;;;107914;1247;22649;-78
2023/05/04 01:10:52;;;;;;;49.00;26.00;;;;;;;;;;107963;1247;25296;-79
2023/05/04 01:13:20;;;;;;;51.80;24.90;;;;;;;;;;108030;1247;25376;-81
2023/05/04 01:15:47;;;;;;;51.70;25.50;;;;;;;;;;107901;1247;22769;-79
2023/05/04 01:18:15;;;;;;;53.70;26.10;;;;;;;;;;107694;1247;22514;-78
2023/05/04 01:20:41;;;;;;;47.10;24.20;;;;;;;;;;110423;1250;25344;-79
2023/05/04 01:23:08;;;;;;;47.80;26.30;;;;;;;;;;107916;1252;22527;-78
2023/05/04 01:25:37;;;;;;;50.70;25.40;;;;;;;;;;107876;1248;22511;-79
2023/05/04 01:28:08;;;;;;;47.60;24.60;;;;;;;;;;107915;1252;25356;-78
2023/05/04 01:30:38;;;;;;;47.90;27.10;;;;;;;;;;107946;1248;23194;-80
2023/05/04 01:33:05;;;;;;;43.10;22.60;;;;;;;;;;107893;1251;26378;-79
2023/05/04 01:35:31;;;;;;;54.40;26.90;;;;;;;;;;107708;1250;26406;-78
2023/05/04 01:37:57;;;;;;;45.70;24.20;;;;;;;;;;108942;1247;22140;-79
2023/05/04 01:40:24;;;;;;;56.10;27.00;;;;;;;;;;110985;1247;22356;-77
2023/05/04 01:42:50;;;;;;;54.80;26.70;;;;;;;;;;111057;1247;23155;-76
2023/05/04 01:45:17;;;;;;;53.40;26.20;;;;;;;;;;108870;1252;22515;-79
2023/05/04 01:47:43;;;;;;;48.90;25.90;;;;;;;;;;107868;1249;22515;-78
2023/05/04 01:50:10;;;;;;;50.00;28.50;;;;;;;;;;107846;1250;22529;-79
2023/05/04 01:52:36;;;;;;;46.90;24.80;;;;;;;;;;108582;1247;22830;-79
2023/05/04 01:55:02;;;;;;;48.30;25.60;;;;;;;;;;111035;1247;22319;-76
2023/05/04 01:57:29;;;;;;;42.80;24.70;;;;;;;;;;110953;1247;22734;-76
2023/05/04 01:59:55;;;;;;;53.40;25.80;;;;;;;;;;110924;1247;128451;-77
2023/05/04 02:02:22;;;;;;;46.10;25.30;;;;;;;;;;110999;1248;22251;-77
2023/05/04 02:04:48;;;;;;;56.20;26.10;;;;;;;;;;111051;1247;22159;-77
2023/05/04 02:07:15;;;;;;;46.30;25.50;;;;;;;;;;108308;1248;22535;-78
2023/05/04 02:09:41;;;;;;;47.60;24.70;;;;;;;;;;107927;1247;22774;-78
2023/05/04 02:12:08;;;;;;;51.00;27.30;;;;;;;;;;107826;1247;23118;-79
2023/05/04 02:14:34;;;;;;;59.10;29.70;;;;;;;;;;111015;1247;22489;-77
2023/05/04 02:17:00;;;;;;;52.30;26.60;;;;;;;;;;108576;1252;26397;-78
2023/05/04 02:19:27;;;;;;;51.70;25.30;;;;;;;;;;107867;1247;22997;-80
2023/05/04 02:21:53;;;;;;;50.60;23.90;;;;;;;;;;107883;1247;22530;-78
2023/05/04 02:24:20;;;;;;;46.90;24.50;;;;;;;;;;107734;1248;22555;-78
2023/05/04 02:26:46;;;;;;;43.90;24.20;;;;;;;;;;107933;1250;22527;-78
2023/05/04 02:29:13;;;;;;;47.10;24.70;;;;;;;;;;107944;1250;25343;-81
2023/05/04 02:31:39;;;;;;;48.50;25.50;;;;;;;;;;107885;1247;25182;-78
2023/05/04 02:34:05;;;;;;;52.50;29.50;;;;;;;;;;107892;1248;25438;-80
2023/05/04 02:36:32;;;;;;;48.30;24.10;;;;;;;;;;107928;1247;25351;-78
2023/05/04 02:38:59;;;;;;;47.80;24.00;;;;;;;;;;107920;1247;22518;-78
2023/05/04 02:41:25;;;;;;;48.30;25.30;;;;;;;;;;107894;1247;23239;-78
2023/05/04 02:43:52;;;;;;;48.10;23.10;;;;;;;;;;107907;1247;22690;-79
2023/05/04 02:46:18;;;;;;;44.80;23.80;;;;;;;;;;107729;1248;22573;-80
2023/05/04 02:48:45;;;;;;;49.00;23.90;;;;;;;;;;111024;1247;22910;-76
2023/05/04 02:51:11;;;;;;;46.60;25.10;;;;;;;;;;111015;1247;22353;-76
2023/05/04 02:53:37;;;;;;;47.10;23.60;;;;;;;;;;111025;1247;23446;-78
2023/05/04 02:56:04;;;;;;;44.80;23.60;;;;;;;;;;110986;1247;22510;-77
2023/05/04 02:58:30;;;;;;;45.20;26.60;;;;;;;;;;110982;1247;22459;-78
2023/05/04 03:00:56;;;;;;;44.70;25.00;;;;;;;;;;111004;1247;22891;-78
2023/05/04 03:03:23;;;;;;;46.80;28.40;;;;;;;;;;111070;1247;23033;-77
2023/05/04 03:05:49;;;;;;;51.10;30.50;;;;;;;;;;110968;1247;22253;-76
2023/05/04 03:08:15;;;;;;;48.30;26.30;;;;;;;;;;110999;1247;22728;-78
2023/05/04 03:10:42;;;;;;;42.20;24.30;;;;;;;;;;110978;1247;23062;-78
2023/05/04 03:13:08;;;;;;;43.80;24.30;;;;;;;;;;110036;1247;22571;-79
2023/05/04 03:15:35;;;;;;;42.70;23.40;;;;;;;;;;107931;1251;23244;-78
2023/05/04 03:18:01;;;;;;;42.30;23.90;;;;;;;;;;107913;1247;22521;-78
2023/05/04 03:20:27;;;;;;;48.30;24.50;;;;;;;;;;107964;1253;24215;-79
2023/05/04 03:22:54;;;;;;;51.00;23.90;;;;;;;;;;107877;1247;23231;-78
2023/05/04 03:25:20;;;;;;;49.40;26.50;;;;;;;;;;108004;1247;25338;-80
2023/05/04 03:27:46;;;;;;;53.80;25.50;;;;;;;;;;107924;1252;22517;-78
2023/05/04 03:30:13;;;;;;;54.70;27.90;;;;;;;;;;108045;1247;22566;-79
2023/05/04 03:32:39;;;;;;;52.60;26.90;;;;;;;;;;109022;1247;22520;-78
2023/05/04 03:35:06;;;;;;;58.50;28.50;;;;;;;;;;107901;1247;22696;-78
2023/05/04 03:37:33;;;;;;;57.40;26.60;;;;;;;;;;108700;1247;22402;-78
2023/05/04 03:39:59;;;;;;;52.70;26.90;;;;;;;;;;108817;1247;22684;-80
2023/05/04 03:42:26;;;;;;;51.90;27.10;;;;;;;;;;107918;1247;22533;-80
2023/05/04 03:44:52;;;;;;;55.30;27.50;;;;;;;;;;107910;1248;22553;-78
2023/05/04 03:47:19;;;;;;;54.90;29.00;;;;;;;;;;107914;1247;24355;-79
2023/05/04 03:49:46;;;;;;;56.00;27.40;;;;;;;;;;107934;1247;22581;-79
2023/05/04 03:52:12;;;;;;;44.10;23.50;;;;;;;;;;107921;1247;22564;-78
2023/05/04 03:54:39;;;;;;;54.20;29.10;;;;;;;;;;107936;1250;25007;-79
2023/05/04 03:57:05;;;;;;;66.30;30.10;;;;;;;;;;107997;1247;22611;-78
2023/05/04 03:59:32;;;;;;;48.70;26.00;;;;;;;;;;107885;1247;26030;-78
2023/05/04 04:01:58;;;;;;;48.00;25.30;;;;;;;;;;107930;1247;23265;-79
2023/05/04 04:04:25;;;;;;;43.10;24.30;;;;;;;;;;107921;1248;22565;-78
2023/05/04 04:06:51;;;;;;;39.80;22.80;;;;;;;;;;107857;1247;22521;-79
2023/05/04 04:09:17;;;;;;;44.90;24.10;;;;;;;;;;107915;1247;22511;-79
2023/05/04 04:11:44;;;;;;;41.10;21.40;;;;;;;;;;107858;1253;22653;-79
2023/05/04 04:14:10;;;;;;;44.20;22.40;;;;;;;;;;107652;1250;22514;-79
2023/05/04 04:16:36;;;;;;;41.80;23.80;;;;;;;;;;107984;1247;22538;-78
2023/05/04 04:19:03;;;;;;;39.20;24.30;;;;;;;;;;107927;1247;22703;-79
2023/05/04 04:21:29;;;;;;;40.10;23.30;;;;;;;;;;107839;1247;24756;-79
2023/05/04 04:23:56;;;;;;;40.90;23.30;;;;;;;;;;107906;1247;24079;-79
2023/05/04 04:26:22;;;;;;;43.80;25.10;;;;;;;;;;107904;1247;24196;-78
2023/05/04 04:28:49;;;;;;;43.30;24.00;;;;;;;;;;107888;1252;25505;-78
2023/05/04 04:31:19;;;;;;;47.80;26.00;;;;;;;;;;107642;1247;22667;-80
2023/05/04 04:33:46;;;;;;;42.80;23.40;;;;;;;;;;107878;1248;22520;-78
2023/05/04 04:36:15;;;;;;;38.00;24.20;;;;;;;;;;107865;1247;22528;-79
2023/05/04 04:38:42;;;;;;;38.50;23.10;;;;;;;;;;107888;1247;23288;-79
2023/05/04 04:41:08;;;;;;;41.30;22.80;;;;;;;;;;107982;1247;25368;-78
2023/05/04 04:43:35;;;;;;;41.80;22.30;;;;;;;;;;107905;1252;25796;-80
2023/05/04 04:46:02;;;;;;;32.00;18.90;;;;;;;;;;107907;1247;22540;-78
2023/05/04 04:48:30;;;;;;;30.00;18.00;;;;;;;;;;108586;1250;22541;-80
2023/05/04 04:50:57;;;;;;;34.60;21.30;;;;;;;;;;107909;1247;23791;-78
2023/05/04 04:53:23;;;;;;;32.80;17.90;;;;;;;;;;107920;1247;22638;-79
2023/05/04 04:55:51;;;;;;;29.20;18.50;;;;;;;;;;107905;1252;22524;-80
2023/05/04 04:58:17;;;;;;;33.40;20.20;;;;;;;;;;107862;1247;25435;-79
2023/05/04 05:00:44;;;;;;;31.40;17.20;;;;;;;;;;107847;1247;22541;-80
2023/05/04 05:03:10;;;;;;;25.60;16.50;;;;;;;;;;107731;1250;26463;-80
2023/05/04 05:05:36;;;;;;;25.20;17.00;;;;;;;;;;107876;1248;23576;-79
2023/05/04 05:08:03;;;;;;;24.10;15.40;;;;;;;;;;107897;1247;22529;-78
2023/05/04 05:10:29;;;;;;;27.80;18.00;;;;;;;;;;107853;1247;22578;-78
2023/05/04 05:12:56;;;;;;;29.00;16.10;;;;;;;;;;107889;1249;25489;-79
2023/05/04 05:15:22;;;;;;;25.50;16.50;;;;;;;;;;107900;1247;22511;-79
2023/05/04 05:17:49;;;;;;;35.30;18.40;;;;;;;;;;108211;1253;22530;-79
2023/05/04 05:20:15;;;;;;;22.40;15.60;;;;;;;;;;107904;1247;22533;-79
2023/05/04 05:22:41;;;;;;;27.40;16.30;;;;;;;;;;108645;1247;22545;-79
2023/05/04 05:25:08;;;;;;;26.50;16.50;;;;;;;;;;107884;1250;22541;-78
2023/05/04 05:27:35;;;;;;;27.90;16.10;;;;;;;;;;107838;1247;22517;-79
2023/05/04 05:30:02;;;;;;;30.70;15.50;;;;;;;;;;108410;1252;23227;-79
2023/05/04 05:32:28;;;;;;;24.50;17.00;;;;;;;;;;107948;1247;22537;-79
2023/05/04 05:34:55;;;;;;;25.80;15.40;;;;;;;;;;107894;1247;22515;-78
2023/05/04 05:37:22;;;;;;;24.00;15.80;;;;;;;;;;107988;1248;25226;-78
2023/05/04 05:39:48;;;;;;;25.60;16.20;;;;;;;;;;107904;1247;22521;-78
2023/05/04 05:42:14;;;;;;;23.90;16.00;;;;;;;;;;108578;1247;24225;-78
2023/05/04 05:44:41;;;;;;;22.10;15.70;;;;;;;;;;108054;1248;22520;-78
2023/05/04 05:47:07;;;;;;;22.50;15.40;;;;;;;;;;107846;1247;23781;-78
2023/05/04 05:49:33;;;;;;;28.30;15.70;;;;;;;;;;107924;1248;24202;-80
2023/05/04 05:52:00;;;;;;;24.90;16.90;;;;;;;;;;107870;1248;22555;-79
2023/05/04 05:54:28;;;;;;;19.50;14.50;;;;;;;;;;107739;1247;24305;-80
2023/05/04 05:56:54;;;;;;;26.00;14.70;;;;;;;;;;108085;1247;22468;-79
2023/05/04 05:59:20;;;;;;;22.80;14.40;;;;;;;;;;108200;1247;23020;-79
2023/05/04 06:01:47;;;;;;;26.30;14.90;;;;;;;;;;107946;1247;22711;-78
2023/05/04 06:04:13;;;;;;;22.60;14.60;;;;;;;;;;107973;1247;22531;-78
2023/05/04 06:06:39;;;;;;;22.90;12.70;;;;;;;;;;107843;1248;22514;-80
2023/05/04 06:09:06;;;;;;;21.20;13.90;;;;;;;;;;107914;1252;25530;-79
2023/05/04 06:11:32;;;;;;;16.90;12.80;;;;;;;;;;107898;1247;25233;-78
2023/05/04 06:13:58;;;;;;;24.50;14.80;;;;;;;;;;107913;1250;23393;-77
2023/05/04 06:16:25;;;;;;;29.40;15.10;;;;;;;;;;107859;1247;24259;-81
2023/05/04 06:18:51;;;;;;;20.20;13.60;;;;;;;;;;108060;1252;25293;-77
2023/05/04 06:21:18;;;;;;;17.90;13.30;;;;;;;;;;108043;1252;25274;-77
2023/05/04 06:23:45;;;;;;;18.00;12.20;;;;;;;;;;108001;1248;22515;-78
2023/05/04 06:26:12;;;;;;;19.40;12.30;;;;;;;;;;108046;1247;23264;-76
2023/05/04 06:28:38;;;;;;;20.70;12.50;;;;;;;;;;107959;1253;22510;-77
2023/05/04 06:31:04;;;;;;;16.00;12.80;;;;;;;;;;108075;1247;24174;-78
2023/05/04 06:33:31;;;;;;;18.80;13.40;;;;;;;;;;108049;1247;22582;-79
2023/05/04 06:35:57;;;;;;;16.90;12.40;;;;;;;;;;107986;1247;25020;-79
2023/05/04 06:38:24;;;;;;;19.60;11.40;;;;;;;;;;108052;1247;25503;-78
2023/05/04 06:40:50;;;;;;;18.50;13.10;;;;;;;;;;107994;1248;22569;-77
2023/05/04 06:43:16;;;;;;;22.90;12.00;;;;;;;;;;107822;1248;25496;-78
2023/05/04 06:45:43;;;;;;;16.20;12.00;;;;;;;;;;107922;1252;24897;-78
2023/05/04 06:48:10;;;;;;;17.30;11.00;;;;;;;;;;107880;1247;24233;-78
2023/05/04 06:50:37;;;;;;;16.90;11.60;;;;;;;;;;107788;1247;24215;-79
2023/05/04 06:53:07;;;;;;;21.60;11.30;;;;;;;;;;107894;1248;22954;-79
2023/05/04 06:55:37;;;;;;;18.70;12.60;;;;;;;;;;107808;1247;22541;-78
2023/05/04 06:58:03;;;;;;;19.10;13.30;;;;;;;;;;108010;1248;24064;-80
2023/05/04 07:00:30;;;;;;;16.60;12.40;;;;;;;;;;108006;1247;23194;-78
2023/05/04 07:02:57;;;;;;;18.40;12.60;;;;;;;;;;107740;1247;25304;-79
2023/05/04 07:05:24;;;;;;;21.20;13.30;;;;;;;;;;107908;1248;22515;-80
2023/05/04 07:07:50;;;;;;;18.00;12.50;;;;;;;;;;107700;1247;25374;-80
2023/05/04 07:10:18;;;;;;;16.00;11.90;;;;;;;;;;107631;1247;24534;-78
2023/05/04 07:12:44;;;;;;;15.70;11.80;;;;;;;;;;107846;1247;25424;-80
2023/05/04 07:15:11;;;;;;;19.40;12.80;;;;;;;;;;107703;1247;22570;-78
2023/05/04 07:17:37;;;;;;;21.60;13.80;;;;;;;;;;107705;1247;22660;-79
2023/05/04 07:20:04;;;;;;;20.70;13.00;;;;;;;;;;108003;1252;25366;-80
2023/05/04 07:22:31;;;;;;;17.20;11.70;;;;;;;;;;107933;1249;22525;-80
2023/05/04 07:24:57;;;;;;;17.50;12.30;;;;;;;;;;107818;1250;22514;-80
2023/05/04 07:27:24;;;;;;;16.90;12.40;;;;;;;;;;107628;1256;22514;-79
2023/05/04 07:29:50;;;;;;;14.40;10.90;;;;;;;;;;107850;1248;22548;-80
2023/05/04 07:32:16;;;;;;;9.40;6.50;;;;;;;;;;107852;1252;22514;-79
2023/05/04 07:34:43;;;;;;;7.30;5.90;;;;;;;;;;107754;1248;23173;-79
2023/05/04 07:37:09;;;;;;;11.30;6.80;;;;;;;;;;107578;1248;22515;-79
2023/05/04 07:39:35;;;;;;;9.70;6.10;;;;;;;;;;107838;1248;22540;-78
2023/05/04 07:42:02;;;;;;;11.90;7.00;;;;;;;;;;107822;1251;22522;-79
2023/05/04 07:44:30;;;;;;;10.50;5.80;;;;;;;;;;107880;1248;22523;-78
2023/05/04 07:46:57;;;;;;;11.90;7.20;;;;;;;;;;107884;1252;25268;-78
2023/05/04 07:49:24;;;;;;;11.20;6.40;;;;;;;;;;107852;1247;24075;-79
2023/05/04 07:51:50;;;;;;;10.30;6.10;;;;;;;;;;107837;1251;24114;-78
2023/05/04 07:54:17;;;;;;;8.50;5.70;;;;;;;;;;107598;1253;22518;-79
2023/05/04 07:56:43;;;;;;;10.10;6.00;;;;;;;;;;107769;1247;22508;-79
2023/05/04 07:59:09;;;;;;;10.10;5.70;;;;;;;;;;107744;1247;22515;-77
2023/05/04 08:01:35;;;;;;;7.00;5.00;;;;;;;;;;107967;1248;22147;-79
2023/05/04 08:04:02;;;;;;;7.40;4.70;;;;;;;;;;107651;1247;24356;-79
2023/05/04 08:06:28;;;;;;;5.80;4.70;;;;;;;;;;107775;1248;25265;-80
2023/05/04 08:08:55;;;;;;;9.30;5.40;;;;;;;;;;107932;1247;22524;-78
2023/05/04 08:11:21;;;;;;;6.10;4.30;;;;;;;;;;107994;1247;22935;-78
2023/05/04 08:13:48;;;;;;;5.40;4.00;;;;;;;;;;108142;1247;24186;-79
2023/05/04 08:16:14;;;;;;;8.50;4.80;;;;;;;;;;107905;1249;22525;-78
2023/05/04 08:18:41;;;;;;;6.80;4.90;;;;;;;;;;107824;1253;22519;-80
2023/05/04 08:21:07;;;;;;;11.70;4.80;;;;;;;;;;107935;1253;26462;-78
2023/05/04 08:23:33;;;;;;;9.30;4.00;;;;;;;;;;107917;1251;22511;-77
2023/05/04 08:26:01;;;;;;;7.60;3.80;;;;;;;;;;107811;1252;25255;-78
2023/05/04 08:28:29;;;;;;;10.40;4.50;;;;;;;;;;107908;1247;22635;-79
2023/05/04 08:30:56;;;;;;;7.70;5.20;;;;;;;;;;107668;1251;25355;-80
2023/05/04 08:33:22;;;;;;;5.60;3.90;;;;;;;;;;107625;1253;25288;-78
2023/05/04 08:35:48;;;;;;;7.30;4.50;;;;;;;;;;107473;1250;22726;-78
2023/05/04 08:38:15;;;;;;;11.60;4.80;;;;;;;;;;107476;1251;59436;-80
2023/05/04 08:40:44;;;;;;;5.20;2.80;;;;;;;;;;107562;1250;24177;-79
2023/05/04 08:43:10;;;;;;;6.30;3.40;;;;;;;;;;107702;1248;22518;-79
2023/05/04 08:45:40;;;;;;;7.10;3.40;;;;;;;;;;107787;1250;22546;-78
2023/05/04 08:48:07;;;;;;;5.20;3.70;;;;;;;;;;107536;1256;25390;-79
2023/05/04 08:50:33;;;;;;;7.00;4.40;;;;;;;;;;107549;1250;25235;-79
2023/05/04 08:53:02;;;;;;;5.20;4.00;;;;;;;;;;107723;1250;25380;-78
2023/05/04 08:55:29;;;;;;;6.70;3.60;;;;;;;;;;107506;1250;26604;-78
2023/05/04 08:57:55;;;;;;;6.50;3.20;;;;;;;;;;107556;1250;22525;-78
2023/05/04 09:00:22;;;;;;;6.50;3.60;;;;;;;;;;107505;1250;22514;-79
2023/05/04 09:02:48;;;;;;;6.00;3.60;;;;;;;;;;107555;1251;24183;-80
2023/05/04 09:05:15;;;;;;;8.40;3.60;;;;;;;;;;107513;1251;25374;-78
2023/05/04 09:07:41;;;;;;;19.50;4.50;;;;;;;;;;107558;1250;22500;-78
2023/05/04 09:10:08;;;;;;;11.50;4.80;;;;;;;;;;107470;1253;22519;-78
2023/05/04 09:12:36;;;;;;;5.40;4.10;;;;;;;;;;107551;1253;24936;-80
2023/05/04 09:15:14;;;;;;;7.50;4.20;;;;;;;;;;107606;1250;25481;-79
2023/05/04 09:17:40;;;;;;;6.10;3.60;;;;;;;;;;107912;1247;22525;-79
2023/05/04 09:20:07;;;;;;;7.00;4.00;;;;;;;;;;107564;1251;25667;-78
2023/05/04 09:22:34;;;;;;;13.60;5.20;;;;;;;;;;107715;1250;22811;-78
2023/05/04 09:25:06;;;;;;;9.10;4.00;;;;;;;;;;107563;1251;22513;-78
2023/05/04 09:27:33;;;;;;;8.70;4.10;;;;;;;;;;107864;1251;22532;-80
2023/05/04 09:29:59;;;;;;;6.00;3.40;;;;;;;;;;107612;1248;24984;-79
2023/05/04 09:32:27;;;;;;;4.30;3.60;;;;;;;;;;109409;1250;23287;-79
2023/05/04 09:34:53;;;;;;;6.60;3.60;;;;;;;;;;110822;1250;22431;-80
2023/05/04 09:37:20;;;;;;;7.00;3.50;;;;;;;;;;110013;1248;25570;-79
2023/05/04 09:39:56;;;;;;;5.20;3.10;;;;;;;;;;107631;1248;22956;-79
2023/05/04 09:42:23;;;;;;;6.90;3.60;;;;;;;;;;107752;1250;23260;-80
2023/05/04 09:45:03;;;;;;;10.00;4.60;;;;;;;;;;107709;1250;22550;-78
2023/05/04 09:47:33;;;;;;;17.90;4.70;;;;;;;;;;107741;1250;22537;-79
2023/05/04 09:50:09;;;;;;;11.80;5.10;;;;;;;;;;107944;1251;22566;-79
2023/05/04 09:52:36;;;;;;;11.70;5.30;;;;;;;;;;107918;1251;25350;-78
2023/05/04 09:55:02;;;;;;;11.60;4.40;;;;;;;;;;107964;1251;24275;-79
2023/05/04 09:57:28;;;;;;;12.20;4.70;;;;;;;;;;109306;1251;22167;-79
2023/05/04 09:59:55;;;;;;;4.50;3.20;;;;;;;;;;108851;1253;58992;-78
2023/05/04 10:02:22;;;;;;;11.20;5.00;;;;;;;;;;107047;1250;61269;-79
2023/05/04 10:04:49;;;;;;;6.50;3.20;;;;;;;;;;107048;1249;61423;-80
2023/05/04 10:07:16;;;;;;;4.70;3.00;;;;;;;;;;108382;1253;59624;-79
2023/05/04 10:09:42;;;;;;;8.00;3.70;;;;;;;;;;107935;1251;61278;-79
2023/05/04 10:12:08;;;;;;;5.10;3.80;;;;;;;;;;107165;1250;61214;-79
2023/05/04 10:14:35;;;;;;;7.70;3.70;;;;;;;;;;107082;1251;61244;-78
2023/05/04 10:17:05;;;;;;;7.70;4.00;;;;;;;;;;107224;1255;61449;-79
2023/05/04 10:20:02;;;;;;;5.60;3.50;;;;;;;;;;109941;1250;58990;-79
2023/05/04 10:22:34;;;;;;;4.30;3.20;;;;;;;;;;109785;1248;59159;-80
2023/05/04 10:25:10;;;;;;;6.40;4.00;;;;;;;;;;109936;1250;60026;-79
2023/05/04 10:27:40;;;;;;;5.90;3.70;;;;;;;;;;109956;1251;59791;-79
2023/05/04 10:30:07;;;;;;;4.60;3.60;;;;;;;;;;109797;1250;58983;-81
2023/05/04 10:32:38;;;;;;;5.60;2.80;;;;;;;;;;109979;1251;59011;-80
2023/05/04 10:35:05;;;;;;;5.60;3.30;;;;;;;;;;108511;1247;60267;-79
2023/05/04 10:37:32;;;;;;;4.50;3.30;;;;;;;;;;108374;1251;22551;-79
2023/05/04 10:39:58;;;;;;;4.00;3.30;;;;;;;;;;108370;1253;22546;-79
2023/05/04 10:42:24;;;;;;;7.30;4.10;;;;;;;;;;108371;1250;22593;-79
2023/05/04 10:44:54;;;;;;;5.30;3.30;;;;;;;;;;107749;1250;25390;-78
2023/05/04 10:47:28;;;;;;;5.10;3.50;;;;;;;;;;107903;1251;22541;-80
2023/05/04 10:50:05;;;;;;;4.70;3.30;;;;;;;;;;107830;1249;23756;-78
2023/05/04 10:52:31;;;;;;;4.60;3.00;;;;;;;;;;107710;1250;22662;-80
2023/05/04 10:55:01;;;;;;;5.70;3.00;;;;;;;;;;107733;1251;25233;-79
2023/05/04 10:57:28;;;;;;;6.60;3.20;;;;;;;;;;108481;1256;22525;-78
2023/05/04 10:59:58;;;;;;;4.40;2.70;;;;;;;;;;108394;1255;22925;-78
2023/05/04 11:02:25;;;;;;;5.10;3.60;;;;;;;;;;107798;1250;23254;-79
2023/05/04 11:05:18;;;;;;;6.20;3.10;;;;;;;;;;107714;1253;25273;-78
2023/05/04 11:07:45;;;;;;;4.40;3.50;;;;;;;;;;107752;1251;22634;-79
2023/05/04 11:10:22;;;;;;;3.90;2.90;;;;;;;;;;107874;1248;24294;-80
2023/05/04 11:12:48;;;;;;;7.60;3.00;;;;;;;;;;108646;1251;59125;-80
2023/05/04 11:15:14;;;;;;;5.40;2.90;;;;;;;;;;107808;1248;24078;-80
2023/05/04 11:17:47;;;;;;;3.20;2.10;;;;;;;;;;107709;1250;22631;-79
2023/05/04 11:20:20;;;;;;;3.50;2.60;;;;;;;;;;107639;1251;24192;-80
2023/05/04 11:22:47;;;;;;;4.60;2.80;;;;;;;;;;107727;1249;23156;-79
2023/05/04 11:25:13;;;;;;;4.10;2.90;;;;;;;;;;107654;1252;24218;-79
2023/05/04 11:27:40;;;;;;;5.30;2.40;;;;;;;;;;107946;1247;22535;-79
2023/05/04 11:30:07;;;;;;;3.90;2.90;;;;;;;;;;107879;1251;23269;-79
2023/05/04 11:32:45;;;;;;;3.40;2.50;;;;;;;;;;108633;1247;23183;-79
2023/05/04 11:35:16;;;;;;;7.70;3.00;;;;;;;;;;108715;1250;24270;-79
2023/05/04 11:37:42;;;;;;;4.40;2.80;;;;;;;;;;108543;1250;23268;-80
2023/05/04 11:40:12;;;;;;;6.90;2.50;;;;;;;;;;108397;1251;22656;-79
2023/05/04 11:42:39;;;;;;;3.50;2.50;;;;;;;;;;108437;1247;24240;-80
2023/05/04 11:45:08;;;;;;;7.30;2.40;;;;;;;;;;108365;1248;25401;-80
2023/05/04 11:47:36;;;;;;;4.10;2.60;;;;;;;;;;108285;1250;22552;-79
2023/05/04 11:50:03;;;;;;;;;;;;;;;;;;108248;1247;23410;-79
2023/05/04 11:52:32;;;;;;;7.80;2.40;;;;;;;;;;108367;1251;24225;-79
2023/05/04 11:54:58;;;;;;;5.20;2.80;;;;;;;;;;108302;1253;25329;-80
2023/05/04 11:57:25;;;;;;;2.80;2.20;;;;;;;;;;108319;1248;22952;-79
2023/05/04 11:59:51;;;;;;;3.90;2.40;;;;;;;;;;108413;1253;22540;-81
2023/05/04 12:02:17;;;;;;;5.60;2.90;;;;;;;;;;108946;1251;22357;-79
2023/05/04 12:04:44;;;;;;;4.20;2.70;;;;;;;;;;109490;1250;22563;-79
2023/05/04 12:07:10;;;;;;;5.30;2.60;;;;;;;;;;108281;1250;22523;-81
2023/05/04 12:09:46;;;;;;;8.40;2.90;;;;;;;;;;108307;1250;22587;-79
2023/05/04 12:12:17;;;;;;;5.80;2.60;;;;;;;;;;108518;1250;23124;-79
2023/05/04 12:14:47;;;;;;;3.80;2.50;;;;;;;;;;108469;1251;22649;-79
2023/05/04 12:17:13;;;;;;;6.40;2.50;;;;;;;;;;108620;1247;22539;-82
2023/05/04 12:19:46;;;;;;;5.70;2.70;;;;;;;;;;108555;1250;26631;-81
2023/05/04 12:22:13;;;;;;;3.60;2.40;;;;;;;;;;108668;1253;23009;-79
2023/05/04 12:24:39;;;;;;;4.60;3.30;;;;;;;;;;108327;1251;22518;-81
2023/05/04 12:27:10;;;;;;;3.50;2.60;;;;;;;;;;108380;1251;25667;-81
2023/05/04 12:29:37;;;;;;;6.20;2.70;;;;;;;;;;108221;1250;23401;-81
2023/05/04 12:32:03;;;;;;;4.60;2.70;;;;;;;;;;108476;1250;22544;-81
2023/05/04 12:34:30;;;;;;;5.80;2.30;;;;;;;;;;108368;1250;25240;-79
2023/05/04 12:36:56;;;;;;;4.20;2.90;;;;;;;;;;108421;1250;22615;-81
2023/05/04 12:39:23;;;;;;;5.60;2.60;;;;;;;;;;108482;1250;22747;-79
2023/05/04 12:41:49;;;;;;;5.40;2.20;;;;;;;;;;108442;1250;22528;-80
2023/05/04 12:44:17;;;;;;;3.30;2.20;;;;;;;;;;108391;1250;22514;-81
2023/05/04 12:46:43;;;;;;;;;;;;;;;;;;108443;1248;25349;-79
2023/05/04 12:49:11;;;;;;;3.80;2.50;;;;;;;;;;108352;1250;25317;-79
2023/05/04 12:51:37;;;;;;;3.90;2.70;;;;;;;;;;108374;1251;22867;-79
2023/05/04 12:54:04;;;;;;;3.30;2.00;;;;;;;;;;108634;1251;22523;-80
2023/05/04 12:56:31;;;;;;;4.00;2.70;;;;;;;;;;108270;1251;22725;-79
2023/05/04 12:58:57;;;;;;;3.70;2.50;;;;;;;;;;108567;1253;22525;-79
2023/05/04 13:01:23;;;;;;;8.50;2.40;;;;;;;;;;108486;1248;22544;-80
2023/05/04 13:03:50;;;;;;;5.20;2.20;;;;;;;;;;108276;1251;22565;-79
2023/05/04 13:06:16;;;;;;;5.40;2.50;;;;;;;;;;108404;1250;24262;-80
2023/05/04 13:08:43;;;;;;;3.40;2.50;;;;;;;;;;108181;1252;22544;-79
2023/05/04 13:11:09;;;;;;;3.70;2.70;;;;;;;;;;108488;1252;25271;-80
2023/05/04 13:13:36;;;;;;;5.80;2.50;;;;;;;;;;108341;1248;24230;-79
2023/05/04 13:16:02;;;;;;;6.50;3.90;;;;;;;;;;108376;1251;23874;-80
2023/05/04 13:18:28;;;;;;;3.30;2.80;;;;;;;;;;108659;1251;25370;-80
2023/05/04 13:20:55;;;;;;;3.70;2.50;;;;;;;;;;108817;1253;22534;-79
2023/05/04 13:23:21;;;;;;;6.10;3.20;;;;;;;;;;108609;1248;22534;-79
2023/05/04 13:25:49;;;;;;;6.10;3.40;;;;;;;;;;108465;1252;22589;-80
2023/05/04 13:28:15;;;;;;;4.20;3.50;;;;;;;;;;108415;1251;25360;-79
2023/05/04 13:30:42;;;;;;;3.40;2.60;;;;;;;;;;108405;1250;22532;-79
2023/05/04 13:33:08;;;;;;;3.20;2.60;;;;;;;;;;108537;1253;23227;-79
2023/05/04 13:35:34;;;;;;;3.10;2.20;;;;;;;;;;108445;1251;25380;-81
2023/05/04 13:38:01;;;;;;;3.30;2.50;;;;;;;;;;108300;1251;23146;-79
2023/05/04 13:40:27;;;;;;;4.60;2.60;;;;;;;;;;108202;1253;22621;-79
2023/05/04 13:42:53;;;;;;;3.90;3.00;;;;;;;;;;108387;1251;22554;-80
2023/05/04 13:45:21;;;;;;;5.20;3.10;;;;;;;;;;108356;1251;22545;-79
2023/05/04 13:47:47;;;;;;;4.10;2.50;;;;;;;;;;108438;1248;24266;-80
2023/05/04 13:50:14;;;;;;;5.00;2.80;;;;;;;;;;108211;1251;23247;-79
2023/05/04 13:52:41;;;;;;;6.60;2.90;;;;;;;;;;108357;1248;22536;-79
2023/05/04 13:55:07;;;;;;;8.00;3.40;;;;;;;;;;108524;1253;23259;-79
2023/05/04 13:57:33;;;;;;;4.40;2.60;;;;;;;;;;108770;1248;22534;-79
2023/05/04 14:00:01;;;;;;;4.30;2.90;;;;;;;;;;108599;1252;152007;-79
2023/05/04 14:02:27;;;;;;;6.60;3.10;;;;;;;;;;108708;1248;22560;-79
2023/05/04 14:04:53;;;;;;;5.50;3.40;;;;;;;;;;108484;1251;22551;-80
2023/05/04 14:07:20;;;;;;;3.80;2.60;;;;;;;;;;108462;1253;22546;-79
2023/05/04 14:09:47;;;;;;;5.70;2.60;;;;;;;;;;108415;1251;25723;-80
2023/05/04 14:12:14;;;;;;;4.70;2.70;;;;;;;;;;107888;1253;22540;-78
2023/05/04 14:14:41;;;;;;;3.50;2.70;;;;;;;;;;107874;1253;24212;-78
2023/05/04 14:17:07;;;;;;;4.70;3.30;;;;;;;;;;107666;1248;22611;-80